Tiempo atmosférico en la estación meteorológica de Fisterra, A Coruña (230 m.)



Fecha
DESCASC
Temp. máxima en grados centígrados (hora)
DESCASC
Temp. mínima en grados centígrados (hora)
DESCASC
Temp. media en grados centígrados
DESCASC
Racha de viento máxima en m/sg (hora)
DESCASC
Velocidad máxima media en intervalos de 10 minutos(hora)
DESCASC
Precipitaciones diarias en mm
DESCASC
Precipitaciones de 00:00 a 06:00 en mm
DESCASC
Precipitaciones de 06:00 a 12:00 en mm
DESCASC
Precipitaciones de 12:00 a 18:00 en mm
DESCASC
Precipitaciones de 18:00 a 24:00 en mm
DESCASC
23-06-2019 16.8 (14:20) 14.1 (00:30) 15.4 20.56 (00:50) 12.22 (00:10) 2.8 2.8 0 0 0
22-06-2019 17.6 (01:10) 13.8 (21:30) 15.7 20.28 (23:50) 13.33 (23:50) 12.2 0 0 0 12.2
21-06-2019 18.8 (18:40) 11.8 (05:40) 15.3 11.94 (00:10) 8.61 (00:10) 0 0 0 0 0
20-06-2019 17.3 (12:20) 12.8 (00:00) 15 15.28 (18:30) 10 (18:30) 0 0 0 0 0
19-06-2019 17.4 (13:20) 14 (00:00) 15.7 11.39 (00:10) 9.44 (00:10) 0.4 0.2 0.2 0 0
18-06-2019 16.5 (16:40) 11.6 (00:00) 14.1 26.67 (14:10) 16.39 (14:20) 26.2 2.8 1.6 21 0.8
17-06-2019 16.9 (17:50) 11.8 (00:00) 14.3 11.11 (04:00) 8.61 (02:10) 0 0 0 0 0
16-06-2019 16.3 (17:20) 11.9 (00:00) 14.1 15 (19:00) 10.28 (19:10) 0 0 0 0 0
15-06-2019 19.3 (17:00) 11.8 (00:00) 15.5 7.22 (02:20) 5.83 (05:30) 0 0 0 0 0
14-06-2019 16.8 (15:30) 10.9 (00:00) 13.8 8.06 (16:30) 5.56 (16:30) 1.6 0 0 0 1.6
13-06-2019 16 (14:40) 10.5 (00:00) 13.3 7.78 (21:50) 5.56 (21:50) 0 0 0 0 0
12-06-2019 14.6 (17:20) 10.3 (00:00) 12.5 10.83 (00:10) 7.5 (07:00) 1.2 0 1.2 0 0
11-06-2019 14.3 (14:50) 10.5 (00:00) 12.4 17.5 (11:20) 11.11 (11:20) 0 0 0 0 0
10-06-2019 15.3 (13:40) 11 (00:00) 13.2 10.56 (23:40) 7.78 (00:10) 0 0 0 0 0
09-06-2019 15.8 (14:40) 10.7 (00:00) 13.3 13.06 (20:20) 8.61 (20:20) 0 0 0 0 0
08-06-2019 15.2 (16:10) 10.8 (00:00) 13 12.22 (19:30) 7.78 (18:50) 0 0 0 0 0
07-06-2019 15.8 (18:50) 9.8 (00:00) 12.8 16.39 (02:50) 9.72 (02:10) 1.4 0.2 0 1.2 0
06-06-2019 13.9 (14:50) 10 (00:00) 11.9 32.22 (13:10) 21.67 (14:50) 26.2 2.6 14.2 9.4 0
05-06-2019 15.3 (17:20) 10.7 (00:00) 13 14.72 (05:00) 8.06 (17:30) 3.4 0.6 0 0.2 2.6
04-06-2019 16.8 (17:40) 11.1 (00:00) 13.9 18.33 (06:10) 14.44 (06:10) 8 1.2 0.4 0.2 6.2
03-06-2019 17.3 (19:20) 13.2 (00:00) 15.2 10.83 (09:00) 8.33 (10:30) 4 3.8 0.2 0 0
02-06-2019 20.3 (15:10) 13.6 (00:00) 16.9 7.22 (04:30) 4.72 (04:20) 2 0 0 0 2
01-06-2019 26.7 (16:50) 17 (00:00) 21.9 3.89 (22:40) 3.06 (03:20) 0 0 0 0 0
31-05-2019 30.5 (13:30) 22 (00:00) 26.3 11.67 (00:50) 8.06 (00:50) 0 0 0 0 0
30-05-2019 27.6 (19:20) 19.1 (00:00) 23.4 14.72 (00:10) 10 (22:50) 0 0 0 0 0
29-05-2019 19.2 (23:50) 10.9 (00:00) 15.1 16.39 (21:40) 11.67 (22:00) 0 0 0 0 0
28-05-2019 15.6 (19:10) 11.3 (00:00) 13.5 17.78 (15:30) 10.56 (18:00) 0 0 0 0 0
27-05-2019 14.6 (17:40) 11.5 (00:00) 13.1 16.39 (20:10) 11.11 (20:10) 0 0 0 0 0
26-05-2019 14.4 (18:50) 11.8 (00:00) 13.1 19.44 (20:40) 12.78 (20:50) 0 0 0 0 0

Gráficas

Temp. máximas Temp. mínimas Temp. medias Precipitaciones Rachas de viento máximas Velocidades máximas media en intervalos de 10 minutos

Datos horarios

Fecha y hora oficial Temperatura (ºC) Velocidad del viento (km/h) Dirección del viento Racha (km/h) Dirección de racha Precipitación (mm) Presión (hPa) Tendencia (hPa) Humedad (%)
2019-06-24 23:00:00 15.9 14 Sudeste 20 Sudeste 0 988.6 0.8 91
2019-06-24 22:00:00 16.6 9 Sur 14 Sur 0 988.2 0.5 89
2019-06-24 21:00:00 17.4 8 Sur 14 Sur 0 988 0.4 87
2019-06-24 20:00:00 18.1 7 Sur 19 Sur 0 987.8 0 85
2019-06-24 19:00:00 18.9 10 Sur 20 Sudoeste 0 987.7 0.2 85
2019-06-24 18:00:00 19.6 13 Sur 24 Sur 0 987.6 0.3 86
2019-06-24 17:00:00 19.5 14 Sudoeste 23 Sudoeste 0 987.8 0.5 86
2019-06-24 16:00:00 19 16 Sur 26 Sur 0 987.5 0.5 89
2019-06-24 15:00:00 18.4 16 Sur 27 Sudoeste 0 987.3 0.6 91
2019-06-24 14:00:00 18 17 Sudoeste 25 Sudoeste 0 987.3 0.7 94
2019-06-24 13:00:00 16.7 15 Sur 26 Sur 0 987 0.5 94
2019-06-24 12:00:00 15.7 14 Sur 27 Sur 0 986.7 0.4 95
2019-06-24 11:00:00 15.5 15 Sur 24 Sur 0 986.6 0.6 96
2019-06-24 10:00:00 15.2 17 Sur 27 Sur 0 986.5 0.5 96
2019-06-24 09:00:00 14.8 16 Sur 33 Sur 0.2 986.3 0.7 96
2019-06-24 08:00:00 14.6 19 Sur 28 Sur 0 986 0.2 95
2019-06-24 07:00:00 14.9 17 Sur 30 Sur 0 986 0 95
2019-06-24 06:00:00 15.1 17 Sur 27 Sur 0 985.6 -0.5 95
2019-06-24 05:00:00 15.2 16 Sur 28 Sur 0 985.8 -0.7 95
2019-06-24 04:00:00 15.3 14 Sur 27 Sur 0 986 -0.7 95
2019-06-24 03:00:00 15.4 19 Sur 30 Sur 0 986.1 -0.5 95
2019-06-24 02:00:00 15.4 16 Sur 28 Sur 0 986.5 0.2 95
2019-06-24 01:00:00 15.3 15 Sur 23 Sur 0 986.7 0.9 95
2019-06-24 00:00:00 15.2 16 Sur 24 Sudoeste 0 986.6 0.9 95
2019-06-23 23:00:00 15.4 16 Sur 28 Sur 0 986.3 1 95
2019-06-23 22:00:00 15.8 18 Sur 33 Sudoeste 0 985.8 0.7 94
2019-06-23 21:00:00 16.5 23 Sudoeste 36 Sudoeste 0 985.7 0.6 94
2019-06-23 20:00:00 16.2 26 Sudoeste 43 Sudoeste 0 985.3 0.3 94
2019-06-23 19:00:00 16.4 26 Sudoeste 40 Sudoeste 0 985.1 0.1 94
2019-06-23 18:00:00 16.3 26 Sur 40 Sudoeste 0 985.1 0.2 94
2019-06-23 17:00:00 16.5 23 Sur 40 Sur 0 985 0.4 94
2019-06-23 16:00:00 16.2 25 Sur 40 Sur 0 985 0.6 94
2019-06-23 15:00:00 16.3 23 Sur 41 Sur 0 984.9 0.8 94
2019-06-23 14:00:00 16.7 21 Sur 41 Sur 0 984.6 0.6 95
2019-06-23 13:00:00 15.9 24 Sur 40 Sudoeste 0 984.4 0.8 95
2019-06-23 12:00:00 15.9 25 Sur 41 Sudoeste 0 984.1 0.8 95
2019-06-23 11:00:00 15.7 18 Sur 39 Sur 0 984 1.3 95
2019-06-23 10:00:00 15.5 19 Sur 39 Sur 0 983.6 0.8 95
2019-06-23 09:00:00 15.3 18 Sur 32 Sudoeste 0 983.3 0.4 95
2019-06-23 08:00:00 15 23 Sur 36 Sudoeste 0 982.7 -0.1 95
2019-06-23 07:00:00 15 26 Sudoeste 35 Sudoeste 0 982.8 0.1 95
2019-06-23 06:00:00 15.1 28 Sudoeste 38 Sudoeste 0 982.9 0.5 95
2019-06-23 05:00:00 15.1 30 Sudoeste 39 Sur 0.2 982.8 0.9 95
2019-06-23 04:00:00 15 28 Sur 58 Sudoeste 0 982.7 0.6 95
2019-06-23 03:00:00 14.7 32 Sur 63 Sur 0.2 982.4 0 95
2019-06-23 02:00:00 14.6 36 Sur 71 Sur 0.2 981.9 -0.9 95
2019-06-23 01:00:00 14.4 38 Sur 74 Sur 2.2 982.1 -0.5 95
2019-06-23 00:00:00 14.4 43 Sur 73 Sur 3.2 982.4 -0.7 94
2019-06-22 23:00:00 14 38 Sur 68 Sur 3.4 982.8 -0.6 93
2019-06-22 22:00:00 13.9 39 Sur 66 Sur 0.8 982.6 -1.6 90
2019-06-22 21:00:00 14.2 38 Sur 68 Sur 1.6 983.1 -1.2 88
2019-06-22 20:00:00 14.4 41 Sur 61 Sur 1.4 983.4 -1 86
2019-06-22 19:00:00 13.9 30 Sur 59 Sur 1.8 984.2 -0.5 87
2019-06-22 18:00:00 15.2 34 Sur 58 Sur 0 984.3 -0.7 83
2019-06-22 17:00:00 15.5 31 Sur 53 Sur 0 984.4 -1.1 83
2019-06-22 16:00:00 16.2 30 Sur 57 Sur 0 984.7 -0.9 81
2019-06-22 15:00:00 16 28 Sur 57 Sur 0 985 -0.7 81
2019-06-22 14:00:00 16.8 30 Sur 54 Sur 0 985.5 0.1 79
2019-06-22 13:00:00 15.5 27 Sur 46 Sur 0 985.6 -0.9 88
2019-06-22 12:00:00 15.5 26 Sur 46 Sur 0 985.7 -0.9 92
2019-06-22 11:00:00 14.8 24 Sur 40 Sur 0 985.4 -1.1 94
2019-06-22 10:00:00 14.8 23 Sur 37 Sur 0 986.5 -0.4 94
2019-06-22 09:00:00 14.5 24 Sur 34 Sur 0 986.6 0.2 93
2019-06-22 08:00:00 14.5 23 Sur 35 Sur 0 986.5 -0.7 93
2019-06-22 07:00:00 14.5 18 Sur 27 Sur 0 986.9 -1 91
2019-06-22 06:00:00 14.5 13 Sudeste 21 Sur 0 986.4 -2.1 90
2019-06-22 05:00:00 15 18 Sur 26 Sur 0 987.2 -1.7 85
2019-06-22 04:00:00 15.8 18 Sur 25 Sur 0 987.9 -1.4 79
2019-06-22 03:00:00 16.7 14 Sur 21 Sur 0 988.5 -1.3 72
2019-06-22 02:00:00 16.9 9 Sudeste 11 Sudeste 0 988.9 -0.9 70
2019-06-22 01:00:00 17.5 7 Sudeste 20 Este 0 989.3 -0.6 64
2019-06-22 00:00:00 17.3 15 Este 21 Este 0 989.8 -0.5 64
2019-06-21 23:00:00 17 14 Este 23 Este 0 989.8 -0.6 66
2019-06-21 22:00:00 17.3 17 Nordeste 23 Nordeste 0 989.9 -0.6 69
2019-06-21 21:00:00 18 18 Nordeste 23 Nordeste 0 990.3 -0.7 67
2019-06-21 20:00:00 17.9 18 Nordeste 23 Norte 0 990.4 -0.8 71
2019-06-21 19:00:00 18.6 17 Norte 31 Nordeste 0 990.5 -0.8 70
2019-06-21 18:00:00 17.7 22 Norte 38 Norte 0 991 -0.5 72
2019-06-21 17:00:00 17.3 24 Norte 38 Norte 0 991.2 -0.7 75
2019-06-21 16:00:00 16.9 21 Norte 35 Nordeste 0 991.3 -0.9 78
2019-06-21 15:00:00 16.8 24 Norte 36 Nordeste 0 991.5 -0.7 78
2019-06-21 14:00:00 16.2 24 Norte 33 Nordeste 0 991.9 -0.5 80
2019-06-21 13:00:00 16.7 18 Norte 28 Norte 0 992.2 -0.1 80
2019-06-21 12:00:00 15.9 19 Nordeste 25 Nordeste 0 992.2 0 82
2019-06-21 11:00:00 15.8 13 Nordeste 22 Nordeste 0 992.4 0.4 82
2019-06-21 10:00:00 14.7 12 Nordeste 23 Nordeste 0 992.3 0.6 88
2019-06-21 09:00:00 13.5 15 Nordeste 26 Nordeste 0 992.2 0.7 90
2019-06-21 08:00:00 12.3 19 Nordeste 32 Nordeste 0 992 0.5 92
2019-06-21 07:00:00 12 15 Nordeste 28 Nordeste 0 991.7 -0.1 93
2019-06-21 06:00:00 11.9 16 Nordeste 33 Nordeste 0 991.5 -0.4 93
2019-06-21 05:00:00 12 24 Nordeste 39 Nordeste 0 991.5 -0.5 93
2019-06-21 04:00:00 12 21 Nordeste 36 Nordeste 0 991.8 -0.1 93
2019-06-21 03:00:00 12.2 21 Nordeste 29 Nordeste 0 991.9 0.4 93
2019-06-21 02:00:00 12.3 18 Nordeste 36 Nordeste 0 992 1 93
2019-06-21 01:00:00 12.6 25 Nordeste 43 Nordeste 0 991.9 1.7 92
2019-06-21 00:00:00 12.8 31 Nordeste 43 Nordeste 0 991.5 1.4 90
2019-06-20 23:00:00 13.3 25 Nordeste 46 Nordeste 0 991 1.1 87
2019-06-20 22:00:00 14.1 26 Nordeste 46 Nordeste 0 990.2 0.7 82
2019-06-20 21:00:00 15.1 27 Nordeste 46 Nordeste 0 990.1 0.3 80
2019-06-20 20:00:00 15.8 29 Nordeste 48 Nordeste 0 989.9 -0.1 78
2019-06-20 19:00:00 15.5 32 Norte 55 Nordeste 0 989.5 -0.8 79
2019-06-20 18:00:00 16.4 28 Norte 46 Norte 0 989.8 -0.3 76
2019-06-20 17:00:00 15.4 28 Norte 48 Norte 0 990 0 82
2019-06-20 16:00:00 15.6 26 Norte 46 Norte 0 990.3 -0.1 83
2019-06-20 15:00:00 15.1 30 Norte 46 Norte 0 990.1 -0.2 86
2019-06-20 14:00:00 15.8 27 Norte 43 Norte 0 990 0 84
2019-06-20 13:00:00 16.2 24 Norte 37 Norte 0 990.4 0.4 84
2019-06-20 12:00:00 16.5 16 Nordeste 33 Nordeste 0 990.3 0.5 78
2019-06-20 11:00:00 15.9 19 Nordeste 36 Nordeste 0 990 0.3 81
2019-06-20 10:00:00 14.9 19 Nordeste 35 Nordeste 0 990 0.5 90
2019-06-20 09:00:00 13.8 21 Nordeste 36 Nordeste 0 989.8 0.2 93
2019-06-20 08:00:00 13.4 19 Nordeste 41 Nordeste 0 989.7 0.3 95
2019-06-20 07:00:00 13.5 26 Nordeste 37 Nordeste 0 989.5 -0.2 95
2019-06-20 06:00:00 13.7 24 Nordeste 35 Nordeste 0 989.6 -0.5 95
2019-06-20 05:00:00 13.7 22 Nordeste 34 Nordeste 0 989.4 -0.8 95
2019-06-20 04:00:00 13.8 20 Nordeste 32 Nordeste 0 989.7 -0.7 95
2019-06-20 03:00:00 13.8 24 Nordeste 33 Norte 0 990.1 0 95
2019-06-20 02:00:00 13.8 23 Nordeste 32 Nordeste 0 990.2 0.3 95
2019-06-20 01:00:00 13.8 22 Nordeste 32 Nordeste 0 990.4 0.9 95
2019-06-20 00:00:00 14 26 Nordeste 36 Nordeste 0 990.1 0.5 95
2019-06-19 23:00:00 14.1 23 Nordeste 33 Nordeste 0 989.9 0.3 94
2019-06-19 22:00:00 14.4 19 Norte 27 Nordeste 0 989.5 0.4 94
2019-06-19 21:00:00 14.6 17 Norte 25 Nordeste 0 989.6 0.4 94
2019-06-19 20:00:00 14.9 16 Norte 27 Norte 0 989.6 0.3 93
2019-06-19 19:00:00 15.6 17 Norte 25 Norte 0 989.1 0 93
2019-06-19 18:00:00 16.8 12 Norte 19 Norte 0 989.2 0.1 92
2019-06-19 17:00:00 16 6 Norte 12 Norte 0 989.3 0.6 93
2019-06-19 16:00:00 16.7 4 Noroeste 14 Noroeste 0 989.1 0.9 94
2019-06-19 15:00:00 16.1 10 Noroeste 18 Noroeste 0 989.1 1.3 94
2019-06-19 14:00:00 16.5 9 Noroeste 14 Noroeste 0 988.7 1.6 94
2019-06-19 13:00:00 16.5 6 Oeste 10 Oeste 0 988.2 1.3 95
2019-06-19 12:00:00 16.4 4 Noroeste 10 Sudoeste 0 987.8 1.3 95
2019-06-19 11:00:00 16.1 8 Sudoeste 12 Sudoeste 0 987.1 1.3 95
2019-06-19 10:00:00 15.6 8 Sudoeste 21 Sudoeste 0 986.9 1.5 96
2019-06-19 09:00:00 14.8 20 Sudoeste 29 Sudoeste 0 986.5 1.3 95
2019-06-19 08:00:00 14.6 21 Sur 30 Sur 0 985.8 0.8 95
2019-06-19 07:00:00 14.4 22 Sudoeste 33 Sudoeste 0.2 985.4 0.5 95
2019-06-19 06:00:00 14.8 29 Sudoeste 36 Sudoeste 0 985.2 0.5 95
2019-06-19 05:00:00 14.7 29 Sudoeste 36 Sudoeste 0 985 0.2 95
2019-06-19 04:00:00 14.7 29 Sudoeste 39 Sudoeste 0.2 984.9 0.2 95
2019-06-19 03:00:00 14.7 31 Sudoeste 41 Sudoeste 0 984.7 0.2 95
2019-06-19 02:00:00 14.8 33 Sudoeste 41 Sudoeste 0 984.8 0.8 95
2019-06-19 01:00:00 14.8 32 Sudoeste 41 Sudoeste 0 984.7 1.3 95
2019-06-19 00:00:00 14.9 35 Sudoeste 45 Sudoeste 0 984.5 2 95
2019-06-18 23:00:00 15.1 36 Sudoeste 47 Sudoeste 0 984 2.8 95
2019-06-18 22:00:00 15.2 38 Sudoeste 53 Sudoeste 0 983.4 2.4 95
2019-06-18 21:00:00 15.3 41 Sudoeste 72 Sudoeste 0 982.5 1.2 95
2019-06-18 20:00:00 15.1 46 Sudoeste 72 Sur 0.6 981.2 0 95
2019-06-18 19:00:00 15.2 46 Sur 75 Sur 0.2 981 0.8 95
2019-06-18 18:00:00 15.2 37 Sur 61 Sur 0 981.3 1.9 95
2019-06-18 17:00:00 15.6 37 Sur 68 Sudoeste 0 981.2 2 95
2019-06-18 16:00:00 15.5 57 Sudoeste 82 Sur 1 980.2 0 95
2019-06-18 15:00:00 14.9 51 Sur 96 Sur 3.4 979.4 -1.2 95
2019-06-18 14:00:00 14.7 51 Sur 91 Sur 9.2 979.2 -1.5 95
2019-06-18 13:00:00 14.5 45 Sur 86 Sur 7.4 980.2 -1 94
2019-06-18 12:00:00 14.2 40 Sur 77 Sur 1.4 980.6 -0.8 93
2019-06-18 11:00:00 13.7 39 Sur 74 Sur 0 980.7 -0.8 93
2019-06-18 10:00:00 13.1 38 Sur 77 Sur 0 981.2 -0.7 91
2019-06-18 09:00:00 12.6 32 Sudeste 63 Sur 0 981.4 -0.9 89
2019-06-18 08:00:00 12.2 23 Sudeste 55 Sur 0 981.5 -1.1 87
2019-06-18 07:00:00 12.1 22 Sudeste 54 Sudeste 0.2 981.9 -1.4 89
2019-06-18 06:00:00 11.9 22 Sudeste 48 Sudeste 0.4 982.3 -1.6 86
2019-06-18 05:00:00 11.8 22 Sur 43 Sur 1.2 982.6 -2 86
2019-06-18 04:00:00 12.4 18 Sur 45 Sur 0.6 983.3 -1.7 86
2019-06-18 03:00:00 13.1 18 Sur 30 Sur 0.2 983.9 -1.5 90
2019-06-18 02:00:00 13.2 15 Sur 23 Sur 0 984.6 -1.5 90
2019-06-18 01:00:00 12.9 10 Sudeste 17 Sudeste 0.4 985 -1 91
2019-06-18 00:00:00 13.3 9 Sudeste 17 Sur 0 985.4 -1.2 91
2019-06-17 23:00:00 13.4 7 Sur 18 Sudeste 0 986.1 -0.6 90
2019-06-17 22:00:00 13.6 6 Sudeste 17 Sudeste 0 986 -0.7 89
2019-06-17 21:00:00 14.3 8 Sur 15 Sudoeste 0 986.6 -0.8 88
2019-06-17 20:00:00 14.6 8 Sur 17 Sur 0 986.7 -1.2 87
2019-06-17 19:00:00 15.5 11 Sur 21 Sur 0 986.7 -2.1 82
2019-06-17 18:00:00 16 12 Sur 23 Sudoeste 0 987.4 -0.9 81
2019-06-17 17:00:00 16.2 8 Sur 21 Sudoeste 0 987.9 -1.2 79
2019-06-17 16:00:00 15.9 11 Sudoeste 22 Sudoeste 0 988.8 -0.3 84
2019-06-17 15:00:00 15.4 7 Sur 13 Este 0 988.3 -0.9 85
2019-06-17 14:00:00 15.5 5 Sur 17 Sudoeste 0 989.1 0.1 81
2019-06-17 13:00:00 16.1 10 Sudoeste 18 Sudoeste 0 989.1 0.4 84
2019-06-17 12:00:00 16 10 Sudoeste 14 Sudoeste 0 989.2 -0.1 84
2019-06-17 11:00:00 14.8 5 Oeste 10 Sudoeste 0 989 0.1 84
2019-06-17 10:00:00 14.5 3 Norte 12 Este 0 988.7 -0.6 85
2019-06-17 09:00:00 14.3 7 Este 27 Este 0 989.3 -0.2 87
2019-06-17 08:00:00 12.8 22 Este 34 Nordeste 0 988.9 -1 90
2019-06-17 07:00:00 12.1 27 Nordeste 38 Nordeste 0 989.3 -0.6 90
2019-06-17 06:00:00 11.9 26 Nordeste 35 Nordeste 0 989.5 -1.6 90
2019-06-17 05:00:00 12 26 Nordeste 40 Nordeste 0 989.9 -1 90
2019-06-17 04:00:00 12.3 29 Nordeste 40 Nordeste 0 989.9 -1.6 91
2019-06-17 03:00:00 12.5 23 Nordeste 39 Nordeste 0 991.1 -0.9 90
2019-06-17 02:00:00 12.3 30 Nordeste 37 Nordeste 0 990.9 -0.7 89
2019-06-17 01:00:00 12.4 25 Nordeste 35 Nordeste 0 991.5 0 87
2019-06-17 00:00:00 12.7 23 Nordeste 38 Nordeste 0 992 0.5 82
2019-06-16 23:00:00 13.3 26 Nordeste 35 Nordeste 0 991.6 0.3 75
2019-06-16 22:00:00 14.4 24 Nordeste 43 Norte 0 991.5 0.2 74
2019-06-16 21:00:00 14.9 25 Norte 43 Norte 0 991.5 -0.1 76
2019-06-16 20:00:00 15.1 30 Norte 53 Norte 0 991.3 -0.5 72
2019-06-16 19:00:00 15.7 33 Norte 54 Norte 0 991.3 -0.8 74
2019-06-16 18:00:00 15.8 36 Norte 51 Norte 0 991.6 -0.5 68
2019-06-16 17:00:00 16 28 Norte 46 Norte 0 991.8 -0.7 61
2019-06-16 16:00:00 15.8 28 Norte 44 Norte 0 992.1 -0.4 67
2019-06-16 15:00:00 15.2 31 Norte 46 Norte 0 992.1 -0.9 74
2019-06-16 14:00:00 15.3 25 Norte 39 Norte 0 992.5 -0.5 78
2019-06-16 13:00:00 15 21 Norte 31 Norte 0 992.5 -0.4 76
2019-06-16 12:00:00 15.6 15 Norte 23 Norte 0 993 0.2 70
2019-06-16 11:00:00 15.6 11 Norte 23 Nordeste 0 993 0.4 72
2019-06-16 10:00:00 15.3 14 Nordeste 22 Nordeste 0 992.9 0.3 71
2019-06-16 09:00:00 13.8 14 Nordeste 23 Nordeste 0 992.8 0.1 77
2019-06-16 08:00:00 12.7 17 Nordeste 21 Norte 0 992.6 -0.4 88
2019-06-16 07:00:00 12.2 18 Nordeste 21 Norte 0 992.6 -0.9 91
2019-06-16 06:00:00 12.1 14 Norte 15 Nordeste 0 992.7 -1 90
2019-06-16 05:00:00 12.4 13 Norte 15 Norte 0 993 -1.5 88
2019-06-16 04:00:00 12.3 10 Norte 12 Norte 0 993.5 -1.3 87
2019-06-16 03:00:00 12.5 7 Norte 9 Norte 0 993.7 -0.9 85
2019-06-16 02:00:00 12.8 4 Noroeste 9 Noroeste 0 994.5 0 85
2019-06-16 01:00:00 12.8 6 Noroeste 11 Noroeste 0 994.8 0.5 84
2019-06-16 00:00:00 13.1 8 Noroeste 13 Noroeste 0 994.6 0.3 83
2019-06-15 23:00:00 13.3 8 Noroeste 10 Oeste 0 994.5 0 81
2019-06-15 22:00:00 14.1 9 Oeste 14 Oeste 0 994.3 -0.2 78
2019-06-15 21:00:00 15.8 9 Oeste 18 Oeste 0 994.3 -0.5 74
2019-06-15 20:00:00 16.1 12 Oeste 21 Oeste 0 994.5 -0.5 74
2019-06-15 19:00:00 15.3 13 Sudoeste 19 Sudoeste 0 994.5 -0.6 77
2019-06-15 18:00:00 19 14 Sudoeste 22 Sudoeste 0 994.8 -0.1 67
2019-06-15 17:00:00 18.9 16 Sudoeste 23 Oeste 0 995 0.3 69
2019-06-15 16:00:00 18.5 18 Sudoeste 24 Oeste 0 995.1 0.7 70
2019-06-15 15:00:00 17.4 17 Oeste 25 Oeste 0 994.9 0.7 71
2019-06-15 14:00:00 15.8 16 Sudoeste 24 Sudoeste 0 994.7 0.9 75
2019-06-15 13:00:00 17.9 20 Sudoeste 24 Sudoeste 0 994.4 1.1 72
2019-06-15 12:00:00 17 17 Sudoeste 22 Sudoeste 0 994.2 1.4 76
2019-06-15 11:00:00 15.2 18 Sudoeste 23 Sudoeste 0 993.8 1.3 79
2019-06-15 10:00:00 13.8 18 Sudoeste 25 Sudoeste 0 993.3 1.2 82
2019-06-15 09:00:00 13.5 15 Sudoeste 20 Oeste 0 992.8 1.2 81
2019-06-15 08:00:00 12.7 15 Oeste 20 Oeste 0 992.5 0.9 79
2019-06-15 07:00:00 11.9 16 Oeste 24 Oeste 0 992.1 0.4 80
2019-06-15 06:00:00 12.2 19 Oeste 26 Oeste 0 991.6 -0.1 79
2019-06-15 05:00:00 12.1 18 Oeste 24 Oeste 0 991.6 -0.2 79
2019-06-15 04:00:00 12.6 17 Noroeste 24 Noroeste 0 991.7 0 79
2019-06-15 03:00:00 12.5 14 Noroeste 26 Oeste 0 991.7 0.4 78
2019-06-15 02:00:00 12.8 14 Noroeste 24 Noroeste 0 991.8 0.8 80
2019-06-15 01:00:00 12.8 11 Noroeste 24 Noroeste 0 991.7 1.4 83
2019-06-15 00:00:00 12.9 15 Noroeste 29 Noroeste 0 991.3 1.3 86
2019-06-14 23:00:00 12.8 13 Noroeste 25 Noroeste 0 991 1.5 87
2019-06-14 22:00:00 12.8 10 Noroeste 21 Noroeste 0.8 990.3 1 87
2019-06-14 21:00:00 13.4 12 Oeste 22 Sudoeste 0.8 990 0.9 86
2019-06-14 20:00:00 16 14 Sudoeste 21 Oeste 0 989.5 0.7 81
2019-06-14 19:00:00 15.3 10 Sudoeste 17 Oeste 0 989.3 0.5 78
2019-06-14 18:00:00 16.5 11 Oeste 18 Oeste 0 989.1 0.5 77
2019-06-14 17:00:00 15.3 15 Oeste 29 Oeste 0 988.8 0.5 76
2019-06-14 16:00:00 16.4 15 Oeste 23 Oeste 0 988.8 0.8 75
2019-06-14 15:00:00 16 16 Oeste 23 Oeste 0 988.6 0.9 77
2019-06-14 14:00:00 15.6 15 Oeste 21 Oeste 0 988.3 0.8 76
2019-06-14 13:00:00 15.2 9 Oeste 17 Oeste 0 988 0.8 77
2019-06-14 12:00:00 15 6 Oeste 10 Oeste 0 987.7 1.1 72
2019-06-14 11:00:00 14.2 5 Oeste 8 Noroeste 0 987.5 1 73
2019-06-14 10:00:00 13 3 Oeste 4 Sudoeste 0 987.2 0.7 73
2019-06-14 09:00:00 14.2 2 Noroeste 6 Norte 0 986.6 0.5 71
2019-06-14 08:00:00 12.5 5 Nordeste 6 Nordeste 0 986.5 0.4 76
2019-06-14 07:00:00 11.3 4 Norte 12 Nordeste 0 986.5 0.4 80
2019-06-14 06:00:00 11 10 Norte 16 Norte 0 986.1 -0.3 81
2019-06-14 05:00:00 11.2 12 Norte 16 Norte 0 986.1 -0.4 81
2019-06-14 04:00:00 11.3 12 Norte 15 Norte 0 986.1 -0.9 82
2019-06-14 03:00:00 11 12 Nordeste 17 Nordeste 0 986.4 -0.6 82
2019-06-14 02:00:00 11.1 15 Nordeste 17 Nordeste 0 986.5 -0.4 79
2019-06-14 01:00:00 11.4 14 Nordeste 21 Norte 0 987 0.5 81
2019-06-14 00:00:00 12 15 Norte 22 Norte 0 987 0.6 79
2019-06-13 23:00:00 12.3 15 Norte 28 Norte 0 986.9 0.7 78
2019-06-13 22:00:00 12.9 19 Norte 28 Norte 0 986.5 0.3 73
2019-06-13 21:00:00 14.1 18 Norte 27 Norte 0 986.4 0.3 71
2019-06-13 20:00:00 14.4 17 Noroeste 27 Norte 0 986.2 0 70
2019-06-13 19:00:00 15.2 12 Noroeste 26 Norte 0 986.2 0 68
2019-06-13 18:00:00 15.1 15 Noroeste 27 Norte 0 986.1 -0.1 67
2019-06-13 17:00:00 15 15 Noroeste 26 Norte 0 986.2 0.1 69
2019-06-13 16:00:00 15 12 Noroeste 23 Noroeste 0 986.2 0.3 68
2019-06-13 15:00:00 15.7 13 Noroeste 20 Noroeste 0 986.2 0.4 69
2019-06-13 14:00:00 15.5 12 Noroeste 18 Noroeste 0 986.1 0.4 70
2019-06-13 13:00:00 14.6 9 Oeste 14 Oeste 0 985.9 0.1 77
2019-06-13 12:00:00 13.9 5 Noroeste 10 Oeste 0 985.8 0.3 76
2019-06-13 11:00:00 13.5 4 Noroeste 9 Norte 0 985.7 0.4 75
2019-06-13 10:00:00 12.4 4 Noroeste 8 Norte 0 985.8 0.5 80
2019-06-13 09:00:00 12.2 2 Oeste 5 Noroeste 0 985.5 0.2 76
2019-06-13 08:00:00 11.9 0 Calma 10 Norte 0 985.3 -0.2 78
2019-06-13 07:00:00 10.8 7 Nordeste 11 Norte 0 985.3 -0.5 76
2019-06-13 06:00:00 10.8 4 Norte 18 Nordeste 0 985.3 -0.7 79
2019-06-13 05:00:00 11 7 Nordeste 13 Norte 0 985.5 -1 77
2019-06-13 04:00:00 10.6 12 Norte 18 Norte 0 985.8 -1 78
2019-06-13 03:00:00 10.9 14 Norte 20 Norte 0 986 -1.2 79
2019-06-13 02:00:00 11.2 12 Norte 18 Norte 0 986.5 -1 81
2019-06-13 01:00:00 11.3 13 Norte 23 Norte 0 986.8 -0.6 80
2019-06-13 00:00:00 11.4 15 Norte 23 Norte 0 987.2 0 78
2019-06-12 23:00:00 11.7 13 Norte 26 Norte 0 987.5 0.1 79
2019-06-12 22:00:00 12.1 19 Norte 32 Norte 0 987.4 -0.2 77
2019-06-12 21:00:00 13.6 18 Norte 33 Norte 0 987.2 -0.8 72
2019-06-12 20:00:00 13.2 21 Norte 34 Norte 0 987.4 -1.1 68
2019-06-12 19:00:00 14.5 19 Norte 31 Norte 0 987.6 -1.1 71
2019-06-12 18:00:00 14.6 20 Norte 31 Norte 0 988 -1.1 68
2019-06-12 17:00:00 14.4 22 Norte 33 Norte 0 988.5 -0.9 72
2019-06-12 16:00:00 14.1 20 Norte 31 Norte 0 988.7 -1.1 72
2019-06-12 15:00:00 13.9 20 Norte 30 Noroeste 0 989.1 -0.9 75
2019-06-12 14:00:00 13.8 18 Norte 26 Norte 0 989.4 -0.6 76
2019-06-12 13:00:00 13.7 12 Norte 21 Norte 0 989.8 -0.2 79
2019-06-12 12:00:00 13.1 10 Norte 15 Norte 0 990 -0.2 86
2019-06-12 11:00:00 12.2 9 Norte 27 Norte 1 990 -0.1 90
2019-06-12 10:00:00 11.1 20 Norte 31 Norte 0.2 990 -0.1 86
2019-06-12 09:00:00 12.3 15 Norte 26 Norte 0 990.2 0 75
2019-06-12 08:00:00 11.6 20 Norte 34 Norte 0 990.1 -0.5 78
2019-06-12 07:00:00 11.1 27 Norte 37 Norte 0 990.1 -1 83
2019-06-12 06:00:00 11.1 14 Norte 27 Nordeste 0 990.2 -1.7 88
2019-06-12 05:00:00 11.6 17 Norte 26 Norte 0 990.6 -1.9 85
2019-06-12 04:00:00 11.5 17 Norte 34 Norte 0 991.1 -1.8 83
2019-06-12 03:00:00 11.6 25 Norte 34 Norte 0 991.9 -1.1 84
2019-06-12 02:00:00 11.6 22 Norte 36 Norte 0 992.5 -0.5 84
2019-06-12 01:00:00 11.8 20 Norte 39 Norte 0 992.9 0.1 85
2019-06-12 00:00:00 12 26 Norte 42 Norte 0 993 -0.2 82
2019-06-11 23:00:00 12.2 21 Norte 47 Norte 0 993 0 83
2019-06-11 22:00:00 12.4 28 Norte 51 Norte 0 992.8 -0.6 80
2019-06-11 21:00:00 13.1 33 Norte 59 Norte 0 993.2 -0.3 75
2019-06-11 20:00:00 13.6 34 Norte 55 Norte 0 993 -0.4 75
2019-06-11 19:00:00 14.1 34 Norte 58 Norte 0 993.4 0 72
2019-06-11 18:00:00 14 33 Norte 58 Norte 0 993.5 0.2 66
2019-06-11 17:00:00 14 34 Norte 60 Norte 0 993.4 -0.2 67
2019-06-11 16:00:00 13.6 35 Norte 59 Norte 0 993.4 -0.1 72
2019-06-11 15:00:00 14.1 36 Norte 57 Norte 0 993.3 -0.1 68
2019-06-11 14:00:00 14 37 Norte 62 Norte 0 993.6 0.7 69
2019-06-11 13:00:00 13.5 37 Norte 58 Norte 0 993.5 0.4 69
2019-06-11 12:00:00 13.3 37 Norte 63 Norte 0 993.4 0.8 68
2019-06-11 11:00:00 12.6 34 Norte 51 Norte 0 992.9 0.5 74
2019-06-11 10:00:00 12.6 33 Nordeste 52 Nordeste 0 993.1 1.3 73
2019-06-11 09:00:00 12.1 27 Nordeste 44 Nordeste 0 992.6 1.3 77
2019-06-11 08:00:00 11.2 29 Nordeste 42 Nordeste 0 992.4 1.1 80
2019-06-11 07:00:00 10.6 28 Nordeste 41 Nordeste 0 991.8 0.2 84
2019-06-11 06:00:00 11 30 Nordeste 47 Nordeste 0 991.3 -0.5 88
2019-06-11 05:00:00 11.1 31 Nordeste 47 Nordeste 0 991.3 -0.8 89
2019-06-11 04:00:00 11.7 24 Norte 41 Norte 0 991.6 -0.7 89
2019-06-11 03:00:00 11.5 23 Nordeste 33 Nordeste 0 991.8 -0.7 90
2019-06-11 02:00:00 11.3 17 Nordeste 28 Nordeste 0 992.1 -0.4 88
2019-06-11 01:00:00 11.4 18 Nordeste 33 Norte 0 992.3 0.2 90
2019-06-11 00:00:00 11.9 23 Norte 38 Nordeste 0 992.5 0.2 90
2019-06-10 23:00:00 12.6 17 Nordeste 23 Nordeste 0 992.5 0.1 80
2019-06-10 22:00:00 12.8 13 Norte 24 Norte 0 992.1 -0.5 80
2019-06-10 21:00:00 13.1 13 Norte 22 Norte 0 992.3 -0.5 79
2019-06-10 20:00:00 13.4 14 Norte 22 Norte 0 992.4 -0.8 78
2019-06-10 19:00:00 13.9 11 Norte 22 Norte 0 992.6 -1 75
2019-06-10 18:00:00 13.8 15 Norte 24 Norte 0 992.8 -1.1 77
2019-06-10 17:00:00 14.6 14 Noroeste 23 Noroeste 0 993.2 -1.1 74
2019-06-10 16:00:00 15.1 12 Noroeste 27 Norte 0 993.6 -1.1 73
2019-06-10 15:00:00 14.9 15 Noroeste 24 Norte 0 993.9 -0.6 73
2019-06-10 14:00:00 14.9 12 Noroeste 21 Norte 0 994.3 -0.3 71
2019-06-10 13:00:00 14.7 10 Noroeste 18 Norte 0 994.7 -0.1 75
2019-06-10 12:00:00 14.5 11 Norte 15 Norte 0 994.5 -0.1 78
2019-06-10 11:00:00 14.1 10 Norte 13 Norte 0 994.6 0.1 76
2019-06-10 10:00:00 13.5 9 Norte 15 Norte 0 994.8 0.7 78
2019-06-10 09:00:00 12.9 9 Norte 16 Norte 0 994.6 0.6 81
2019-06-10 08:00:00 12.1 14 Norte 23 Norte 0 994.5 0.5 82
2019-06-10 07:00:00 11.2 16 Norte 26 Norte 0 994.1 -0.4 84
2019-06-10 06:00:00 11.2 18 Norte 24 Norte 0 994 -1 85
2019-06-10 05:00:00 11.2 14 Norte 22 Norte 0 994 -1.1 85
2019-06-10 04:00:00 11 17 Nordeste 23 Nordeste 0 994.5 -0.7 85
2019-06-10 03:00:00 11.2 19 Nordeste 28 Nordeste 0 995 -0.2 84
2019-06-10 02:00:00 11.5 24 Nordeste 34 Nordeste 0 995.1 0.1 83
2019-06-10 01:00:00 11.4 26 Nordeste 35 Nordeste 0 995.2 0.8 82
2019-06-10 00:00:00 11.3 25 Nordeste 34 Nordeste 0 995.2 1 84
2019-06-09 23:00:00 11.5 26 Nordeste 32 Nordeste 0 995 1.2 80
2019-06-09 22:00:00 12.7 22 Nordeste 43 Nordeste 0 994.4 0.6 74
2019-06-09 21:00:00 13.4 25 Norte 47 Norte 0 994.2 0.6 74
2019-06-09 20:00:00 13.7 28 Norte 44 Norte 0 993.8 0.2 73
2019-06-09 19:00:00 14.5 24 Norte 40 Norte 0 993.8 0.4 71
2019-06-09 18:00:00 14.7 24 Norte 40 Norte 0 993.6 0.2 70
2019-06-09 17:00:00 14.3 25 Norte 44 Norte 0 993.6 0.2 69
2019-06-09 16:00:00 15.6 19 Norte 31 Norte 0 993.4 0 66
2019-06-09 15:00:00 15.2 18 Norte 32 Norte 0 993.4 0 71
2019-06-09 14:00:00 14.9 18 Norte 31 Norte 0 993.4 0.1 78
2019-06-09 13:00:00 14.7 15 Norte 27 Norte 0 993.4 0.7 80
2019-06-09 12:00:00 14.2 14 Norte 24 Nordeste 0 993.4 0.8 84
2019-06-09 11:00:00 13.6 13 Norte 22 Nordeste 0 993.3 0.8 84
2019-06-09 10:00:00 13.3 15 Nordeste 27 Este 0 992.7 0.3 83
2019-06-09 09:00:00 12.8 13 Nordeste 31 Nordeste 0 992.6 0.2 84
2019-06-09 08:00:00 11.8 18 Nordeste 30 Nordeste 0 992.5 -0.1 84
2019-06-09 07:00:00 11.2 22 Nordeste 28 Nordeste 0 992.4 -0.4 84
2019-06-09 06:00:00 11.3 21 Nordeste 25 Nordeste 0 992.4 -0.7 86
2019-06-09 05:00:00 11.4 21 Nordeste 26 Norte 0 992.6 -0.9 87
2019-06-09 04:00:00 11.1 21 Nordeste 27 Nordeste 0 992.8 -0.5 84
2019-06-09 03:00:00 11 24 Nordeste 30 Nordeste 0 993.1 -0.6 85
2019-06-09 02:00:00 10.8 24 Nordeste 38 Nordeste 0 993.5 -0.4 84
2019-06-09 01:00:00 10.8 26 Nordeste 36 Nordeste 0 993.3 -0.7 85
2019-06-09 00:00:00 11.1 24 Nordeste 37 Nordeste 0 993.7 -0.1 82
2019-06-08 23:00:00 11.3 25 Nordeste 37 Nordeste 0 993.9 0 80
2019-06-08 22:00:00 12.1 22 Nordeste 35 Norte 0 994 0 78
2019-06-08 21:00:00 12.7 24 Norte 42 Norte 0 993.8 -0.5 76
2019-06-08 20:00:00 13.2 26 Norte 44 Norte 0 993.9 -0.8 75
2019-06-08 19:00:00 13.4 28 Norte 43 Norte 0 994 -1.1 74
2019-06-08 18:00:00 14.2 23 Norte 37 Norte 0 994.3 -1.1 71
2019-06-08 17:00:00 15.1 18 Norte 27 Norte 0 994.7 -1 72
2019-06-08 16:00:00 15.1 13 Norte 27 Norte 0 995.1 -0.8 74
2019-06-08 15:00:00 13.3 15 Norte 23 Norte 0 995.4 -0.5 77
2019-06-08 14:00:00 13.1 12 Norte 18 Norte 0 995.7 -0.3 77
2019-06-08 13:00:00 13.4 10 Norte 15 Norte 0 995.9 -0.1 75
2019-06-08 12:00:00 13.6 8 Norte 12 Norte 0 995.9 0.1 75
2019-06-08 11:00:00 13.5 2 Nordeste 5 Este 0 996 0.4 75
2019-06-08 10:00:00 12.5 2 Noroeste 5 Nordeste 0 996 0.4 76
2019-06-08 09:00:00 12.1 3 Norte 8 Este 0 995.8 0.2 76
2019-06-08 08:00:00 11.3 6 Este 8 Este 0 995.6 -0.2 75
2019-06-08 07:00:00 11.2 2 Nordeste 4 Este 0 995.6 -0.4 75
2019-06-08 06:00:00 11.1 4 Norte 7 Norte 0 995.6 -0.6 75
2019-06-08 05:00:00 11.1 5 Norte 9 Noroeste 0 995.8 -0.5 75
2019-06-08 04:00:00 11 7 Noroeste 12 Noroeste 0 996 -0.4 79
2019-06-08 03:00:00 11.3 8 Noroeste 15 Noroeste 0 996.2 -0.2 79
2019-06-08 02:00:00 11.3 10 Noroeste 18 Noroeste 0 996.3 0.3 78
2019-06-08 01:00:00 11.7 8 Noroeste 20 Oeste 0 996.4 1 78
2019-06-08 00:00:00 11.9 10 Noroeste 20 Noroeste 0 996.4 1.4 77
2019-06-07 23:00:00 12.3 14 Oeste 21 Oeste 0 996 1.3 77
2019-06-07 22:00:00 12.5 14 Noroeste 21 Oeste 0 995.4 1 72
2019-06-07 21:00:00 14.1 15 Oeste 23 Oeste 0 995 1 70
2019-06-07 20:00:00 14.5 14 Oeste 22 Oeste 0 994.7 1.1 68
2019-06-07 19:00:00 15.5 17 Oeste 25 Oeste 0 994.4 1.2 67
2019-06-07 18:00:00 15.6 18 Oeste 27 Oeste 0 994 1.4 66
2019-06-07 17:00:00 15.1 17 Noroeste 33 Noroeste 0 993.6 1.6 68
2019-06-07 16:00:00 14.6 18 Noroeste 32 Oeste 0 993.2 1.8 72
2019-06-07 15:00:00 13.8 23 Oeste 49 Oeste 1.2 992.6 2.3 77
2019-06-07 14:00:00 14.9 15 Oeste 23 Oeste 0 992 2.4 67
2019-06-07 13:00:00 13.3 12 Noroeste 36 Noroeste 0 991.4 2.5 67
2019-06-07 12:00:00 13.7 23 Noroeste 36 Noroeste 0 990.3 2.3 69
2019-06-07 11:00:00 13.4 17 Noroeste 35 Noroeste 0 989.6 2.4 71
2019-06-07 10:00:00 12.5 12 Noroeste 38 Noroeste 0 988.9 2.8 69
2019-06-07 09:00:00 12.2 13 Noroeste 34 Noroeste 0 988 2.7 74
2019-06-07 08:00:00 11.8 12 Noroeste 41 Norte 0 987.2 2.6 76
2019-06-07 07:00:00 11.2 16 Noroeste 48 Noroeste 0 986.1 2.5 79
2019-06-07 06:00:00 11.6 17 Noroeste 46 Noroeste 0 985.3 2.2 75
2019-06-07 05:00:00 11.5 15 Noroeste 58 Noroeste 0 984.6 2.4 75
2019-06-07 04:00:00 11.3 23 Noroeste 54 Noroeste 0 983.6 1.9 81
2019-06-07 03:00:00 10.3 17 Noroeste 59 Norte 0 983.1 1.6 80
2019-06-07 02:00:00 11.3 24 Noroeste 58 Noroeste 0 982.2 2.2 79
2019-06-07 01:00:00 10.7 32 Noroeste 50 Oeste 0.2 981.7 2.2 86
2019-06-07 00:00:00 10 23 Norte 59 Noroeste 0 981.5 3 81
2019-06-06 23:00:00 11.1 34 Noroeste 57 Noroeste 0 980 2.6 79
2019-06-06 22:00:00 10.7 24 Noroeste 54 Noroeste 0 979.5 3.4 79
2019-06-06 21:00:00 11.1 30 Noroeste 63 Noroeste 0 978.5 3.4 80
2019-06-06 20:00:00 11.3 26 Noroeste 72 Noroeste 0 977.4 3.2 79
2019-06-06 19:00:00 11.8 38 Noroeste 73 Oeste 0 976.1 2.9 79
2019-06-06 18:00:00 12.4 51 Oeste 81 Oeste 0 975.1 3.4 79
2019-06-06 17:00:00 11.7 58 Oeste 83 Oeste 0 974.2 4.3 85
2019-06-06 16:00:00 11.9 66 Oeste 89 Oeste 0 973.2 1.6 88
2019-06-06 15:00:00 12 75 Oeste 113 Sur 1.8 971.7 -1.7 95
2019-06-06 14:00:00 13.1 64 Sur 116 Sur 2.4 969.9 -4.7 95
2019-06-06 13:00:00 12.6 58 Sur 105 Sur 5.2 971.6 -5 95
2019-06-06 12:00:00 12.3 46 Sur 106 Sur 3 973.4 -5.7 95
2019-06-06 11:00:00 12.1 55 Sur 104 Sur 2.2 974.6 -5.8 95
2019-06-06 10:00:00 11.9 41 Sur 89 Sur 4.6 976.6 -5.2 94
2019-06-06 09:00:00 11.8 37 Sur 68 Sudoeste 2.2 979.1 -3.9 93
2019-06-06 08:00:00 11.5 28 Sur 58 Sur 1.6 980.4 -3.9 92
2019-06-06 07:00:00 11.5 27 Sur 55 Sudoeste 0.6 981.8 -3.4 91
2019-06-06 06:00:00 11.7 26 Sur 50 Sudoeste 0 983 -3.2 88
2019-06-06 05:00:00 11.3 26 Sudoeste 40 Sudoeste 0 984.3 -2.6 87
2019-06-06 04:00:00 11.4 22 Sur 29 Sur 0 985.2 -2.4 87
2019-06-06 03:00:00 11.2 15 Sur 28 Sudoeste 0 986.2 -1.9 88
2019-06-06 02:00:00 10.6 21 Sudoeste 49 Sudoeste 0.4 986.9 -1 88
2019-06-06 01:00:00 11.2 19 Sudoeste 40 Sudoeste 2.2 987.6 -0.5 87
2019-06-06 00:00:00 11 19 Sudoeste 40 Oeste 1.8 988.1 -0.2 85
2019-06-05 23:00:00 11.5 23 Oeste 44 Oeste 0 987.9 -0.5 83
2019-06-05 22:00:00 11.3 21 Oeste 40 Oeste 0.8 988.1 -0.5 81
2019-06-05 21:00:00 12.5 15 Oeste 30 Oeste 0 988.3 -0.5 74
2019-06-05 20:00:00 13 24 Oeste 35 Noroeste 0 988.4 -0.7 68
2019-06-05 19:00:00 13.5 27 Oeste 35 Oeste 0 988.6 -0.7 67
2019-06-05 18:00:00 14.6 25 Oeste 37 Oeste 0 988.8 -0.5 63
2019-06-05 17:00:00 14.7 18 Noroeste 32 Oeste 0 989.1 -0.3 69
2019-06-05 16:00:00 14.8 22 Oeste 34 Oeste 0 989.3 0 65
2019-06-05 15:00:00 14.8 19 Noroeste 31 Oeste 0 989.3 0.2 69
2019-06-05 14:00:00 14.7 18 Noroeste 32 Oeste 0 989.4 0.3 67
2019-06-05 13:00:00 13.7 19 Noroeste 30 Oeste 0.2 989.3 0.6 69
2019-06-05 12:00:00 13.6 12 Noroeste 30 Norte 0 989.1 1 71
2019-06-05 11:00:00 12.5 22 Norte 39 Norte 0 989.1 1.4 74
2019-06-05 10:00:00 12.6 13 Noroeste 33 Noroeste 0 988.7 1.4 70
2019-06-05 09:00:00 11.8 15 Noroeste 34 Norte 0 988.1 1 77
2019-06-05 08:00:00 11.7 14 Noroeste 36 Noroeste 0 987.7 1.1 79
2019-06-05 07:00:00 11.5 15 Noroeste 40 Norte 0 987.3 0.2 80
2019-06-05 06:00:00 11.5 20 Noroeste 46 Noroeste 0 987.1 0 85
2019-06-05 05:00:00 11.6 22 Noroeste 53 Noroeste 0.6 986.6 -0.6 85
2019-06-05 04:00:00 11.7 14 Noroeste 31 Norte 0 987.1 -0.2 84
2019-06-05 03:00:00 12 11 Noroeste 26 Noroeste 0 987.1 -0.2 87
2019-06-05 02:00:00 11.8 10 Noroeste 25 Noroeste 0 987.2 0.1 85
2019-06-05 01:00:00 11.6 10 Norte 17 Norte 0 987.3 0.5 84
2019-06-05 00:00:00 11.5 13 Norte 27 Nordeste 2.4 987.3 0.6 84
2019-06-04 23:00:00 11.8 17 Norte 27 Norte 2.4 987.1 0.6 83
2019-06-04 22:00:00 11.3 14 Noroeste 33 Noroeste 1.4 986.8 0.3 81
2019-06-04 21:00:00 12.7 14 Norte 30 Norte 0 986.7 0.1 77
2019-06-04 20:00:00 13.1 13 Noroeste 37 Noroeste 0 986.5 -0.1 78
2019-06-04 19:00:00 15.8 18 Noroeste 35 Noroeste 0 986.5 -0.1 72
2019-06-04 18:00:00 16.2 19 Noroeste 33 Noroeste 0 986.6 0.2 71
2019-06-04 17:00:00 15.3 19 Noroeste 30 Noroeste 0 986.6 0.3 75
2019-06-04 16:00:00 14.1 22 Noroeste 43 Noroeste 0 986.6 0.5 75
2019-06-04 15:00:00 15.5 17 Noroeste 41 Noroeste 0.2 986.4 0.7 77
2019-06-04 14:00:00 15.3 15 Noroeste 32 Noroeste 0 986.3 1 76
2019-06-04 13:00:00 14 22 Noroeste 37 Noroeste 0 986.1 1.3 84
2019-06-04 12:00:00 14.8 19 Noroeste 35 Noroeste 0 985.7 1.6 78
2019-06-04 11:00:00 14.4 13 Noroeste 33 Noroeste 0 985.3 2 81
2019-06-04 10:00:00 13.8 14 Noroeste 35 Noroeste 0 984.8 2.3 81
2019-06-04 09:00:00 13.5 14 Noroeste 46 Noroeste 0 984.1 2.6 85
2019-06-04 08:00:00 12.9 18 Noroeste 58 Noroeste 0 983.3 0.9 92
2019-06-04 07:00:00 13.6 25 Noroeste 66 Sudoeste 0.4 982.5 -0.7 95
2019-06-04 06:00:00 14.2 48 Sudoeste 63 Sudoeste 1.2 981.5 -2.3 95
2019-06-04 05:00:00 14.2 42 Sudoeste 53 Sudoeste 0 982.4 -2.3 94
2019-06-04 04:00:00 14.3 39 Sudoeste 55 Sudoeste 0 983.2 -2.8 94
2019-06-04 03:00:00 14.3 30 Sur 51 Sur 0 983.8 -3.2 94
2019-06-04 02:00:00 14.2 27 Sur 48 Sur 0 984.7 -2.6 93
2019-06-04 01:00:00 14.1 18 Sur 33 Sur 0 986 -1.4 91
2019-06-04 00:00:00 13.6 26 Sudoeste 37 Sudoeste 0 987 -0.9 90
2019-06-03 23:00:00 14.1 16 Sur 26 Sur 0 987.3 -1 88
2019-06-03 22:00:00 13.9 15 Sur 21 Sudoeste 0 987.4 -1.3 86
2019-06-03 21:00:00 15.1 16 Sudoeste 20 Sudoeste 0 987.9 -1.2 83
2019-06-03 20:00:00 16.1 15 Sudoeste 22 Oeste 0 988.3 -1 82
2019-06-03 19:00:00 16.8 11 Sudoeste 16 Sudoeste 0 988.7 -0.6 84
2019-06-03 18:00:00 16 8 Noroeste 19 Noroeste 0 989.1 -0.4 86
2019-06-03 17:00:00 15.8 11 Noroeste 21 Norte 0 989.3 -0.5 88
2019-06-03 16:00:00 15.6 13 Norte 26 Norte 0 989.3 -0.6 87
2019-06-03 15:00:00 14.7 21 Norte 34 Norte 0 989.5 -0.5 90
2019-06-03 14:00:00 14.7 19 Norte 31 Norte 0 989.8 -0.2 92
2019-06-03 13:00:00 14.6 21 Norte 37 Norte 0 989.9 -0.1 94
2019-06-03 12:00:00 14 26 Norte 39 Norte 0 990 0.2 95
2019-06-03 11:00:00 13.8 26 Nordeste 38 Nordeste 0 990 0.5 96
2019-06-03 10:00:00 13.4 26 Norte 37 Norte 0 990 0.6 96
2019-06-03 09:00:00 13.2 25 Norte 39 Norte 0 989.8 0.5 96
2019-06-03 08:00:00 13.9 21 Norte 32 Nordeste 0 989.5 0 96
2019-06-03 07:00:00 14.2 26 Nordeste 33 Nordeste 0.2 989.4 -0.2 96
2019-06-03 06:00:00 14.3 17 Nordeste 22 Nordeste 0 989.3 -0.9 95
2019-06-03 05:00:00 14.4 10 Norte 17 Norte 0.4 989.5 -0.9 94
2019-06-03 04:00:00 15.1 13 Sur 20 Sudoeste 0.8 989.6 -1.3 94
2019-06-03 03:00:00 15.2 6 Oeste 22 Sur 1.4 990.2 -1 94
2019-06-03 02:00:00 15.6 15 Sur 25 Sur 0.8 990.4 -0.6 94
2019-06-03 01:00:00 15.7 15 Sur 26 Sudoeste 0.4 990.9 0.3 94
2019-06-03 00:00:00 15.8 13 Sur 22 Sudoeste 1.4 991.2 0.7 94
2019-06-02 23:00:00 15.8 12 Sur 23 Sudoeste 0.4 991 0.2 93
2019-06-02 22:00:00 15.6 16 Sur 21 Sur 0.2 990.6 -0.3 92
2019-06-02 21:00:00 15.5 16 Sur 23 Sur 0 990.5 -0.8 91
2019-06-02 20:00:00 15.8 15 Sur 21 Sur 0 990.8 -0.4 88
2019-06-02 19:00:00 16.1 15 Sur 19 Sur 0 990.9 -0.3 86
2019-06-02 18:00:00 16.1 11 Sur 18 Sur 0 991.3 0 84
2019-06-02 17:00:00 17.5 12 Sur 20 Sur 0 991.2 -0.3 78
2019-06-02 16:00:00 17.5 13 Sur 22 Sudoeste 0 991.2 -0.6 77
2019-06-02 15:00:00 20.1 16 Sur 23 Sur 0 991.3 -0.2 74
2019-06-02 14:00:00 18.3 13 Sur 19 Sur 0 991.5 0.3 77
2019-06-02 13:00:00 17.4 11 Sur 21 Sur 0 991.8 0.7 81
2019-06-02 12:00:00 16.3 10 Sur 18 Sur 0 991.5 1.2 84
2019-06-02 11:00:00 15.6 12 Sur 22 Sur 0 991.2 0.8 87
2019-06-02 10:00:00 15.3 11 Sur 22 Sur 0 991.1 1.1 88
2019-06-02 09:00:00 14.6 14 Sur 22 Sudoeste 0 990.3 0.5 90
2019-06-02 08:00:00 14.1 12 Sudoeste 20 Sudoeste 0 990.4 0.5 91
2019-06-02 07:00:00 13.8 14 Sudoeste 19 Sudoeste 0 990 -0.2 91
2019-06-02 06:00:00 13.7 11 Sudoeste 18 Sudoeste 0 989.8 -0.7 91
2019-06-02 05:00:00 13.6 14 Sur 26 Sudeste 0 989.9 -0.8 91
2019-06-02 04:00:00 14 7 Sur 17 Sudoeste 0 990.2 -1.1 90
2019-06-02 03:00:00 14.2 10 Sudoeste 23 Oeste 0 990.5 -1 89
2019-06-02 02:00:00 17.4 8 Sur 13 Sudeste 0 990.7 -0.5 52
2019-06-02 01:00:00 16.2 4 Noroeste 20 Oeste 0 991.3 0.4 60
2019-06-02 00:00:00 17.9 8 Sur 12 Sur 0 991.5 0.7 63
2019-06-01 23:00:00 17.1 9 Sudoeste 14 Oeste 0 991.2 0.5 61
2019-06-01 22:00:00 18.8 9 Sudoeste 11 Sudoeste 0 990.9 0.1 46
2019-06-01 21:00:00 18.2 7 Noroeste 13 Oeste 0 990.8 -0.2 63
2019-06-01 20:00:00 23.2 5 Sudoeste 12 Sudoeste 0 990.7 -0.5 34
2019-06-01 19:00:00 23.4 6 Oeste 12 Sudoeste 0 990.8 -0.9 40
2019-06-01 18:00:00 25.8 7 Sur 13 Sur 0 991 -1.1 27
2019-06-01 17:00:00 26.4 7 Sur 11 Sudoeste 0 991.2 -0.9 23
2019-06-01 16:00:00 24.2 5 Oeste 10 Oeste 0 991.7 -0.5 35
2019-06-01 15:00:00 22.3 5 Noroeste 14 Oeste 0 992.1 0.2 55
2019-06-01 14:00:00 24 3 Oeste 9 Sudoeste 0 992.1 0.3 40
2019-06-01 13:00:00 24.4 4 Noroeste 10 Sur 0 992.2 0.7 39
2019-06-01 12:00:00 25.2 4 Sudeste 11 Sur 0 991.9 0.6 44
2019-06-01 11:00:00 23.6 3 Sudoeste 6 Sur 0 991.8 0.7 50
2019-06-01 10:00:00 23.3 2 Nordeste 5 Sudeste 0 991.5 0.4 48
2019-06-01 09:00:00 21.9 2 Nordeste 10 Norte 0 991.3 0.5 38
2019-06-01 08:00:00 19.5 8 Norte 10 Norte 0 991.1 0 59
2019-06-01 07:00:00 20.5 5 Noroeste 11 Norte 0 991.1 -0.3 41
2019-06-01 06:00:00 20.5 8 Noroeste 10 Noroeste 0 990.8 -1 43
2019-06-01 05:00:00 20.9 8 Noroeste 10 Noroeste 0 991.1 -0.9 43
2019-06-01 04:00:00 20.6 8 Noroeste 12 Oeste 0 991.4 -0.8 47
2019-06-01 03:00:00 19.5 8 Noroeste 10 Oeste 0 991.8 -0.5 50
2019-06-01 02:00:00 19.2 7 Sudoeste 9 Sudoeste 0 992 0 53
2019-06-01 01:00:00 20.9 7 Oeste 12 Sur 0 992.2 0.3 45
2019-06-01 00:00:00 22 5 Sudoeste 14 Sur 0 992.3 0.3 40
2019-05-31 23:00:00 22.4 10 Sudeste 11 Sudeste 0 992 0 37
2019-05-31 22:00:00 23.6 2 Este 5 Sudeste 0 991.9 -0.5 34
2019-05-31 21:00:00 24.4 0 Calma 19 Norte 0 992 -0.4 34
2019-05-31 20:00:00 25.5 4 Noroeste 15 Oeste 0 992 -0.8 35
2019-05-31 19:00:00 26.3 7 Oeste 16 Oeste 0 992.4 -0.7 33
2019-05-31 18:00:00 27.7 7 Oeste 15 Oeste 0 992.4 -1 33
2019-05-31 17:00:00 26.9 10 Oeste 19 Oeste 0 992.8 -0.5 33
2019-05-31 16:00:00 26.4 12 Oeste 18 Oeste 0 993.1 0 35
2019-05-31 15:00:00 27.5 11 Oeste 19 Oeste 0 993.4 0.5 37
2019-05-31 14:00:00 29.4 14 Sudoeste 19 Sudoeste 0 993.3 0.5 33
2019-05-31 13:00:00 29.8 10 Sur 20 Sur 0 993.1 0.4 30
2019-05-31 12:00:00 29.1 15 Sur 22 Sur 0 992.9 0.5 30
2019-05-31 11:00:00 28.7 16 Sur 23 Sur 0 992.8 0.7 30
2019-05-31 10:00:00 27.3 12 Sur 14 Sur 0 992.7 0.7 30
2019-05-31 09:00:00 25.9 10 Sur 20 Sur 0 992.4 0.3 30
2019-05-31 08:00:00 27.7 9 Sudeste 13 Sudeste 0 992.1 -0.2 28
2019-05-31 07:00:00 25.8 8 Sudeste 14 Sudeste 0 992 -0.6 31
2019-05-31 06:00:00 24.6 10 Sudeste 17 Sudeste 0 992.1 -1 33
2019-05-31 05:00:00 24.8 12 Sudeste 19 Sudeste 0 992.3 -1.5 31
2019-05-31 04:00:00 24.4 11 Este 25 Este 0 992.6 -1.6 30
2019-05-31 03:00:00 24.9 17 Este 28 Sudeste 0 993.1 -1.4 28
2019-05-31 02:00:00 23.6 11 Este 36 Este 0 993.8 -0.5 34
2019-05-31 01:00:00 25 27 Este 42 Este 0 994.2 0.2 27
2019-05-31 00:00:00 24.2 25 Este 48 Nordeste 0 994.5 0.3 25
2019-05-30 23:00:00 24.6 36 Nordeste 49 Nordeste 0 994.3 0.1 28
2019-05-30 22:00:00 25 33 Nordeste 46 Nordeste 0 994 -0.8 29
2019-05-30 21:00:00 26.1 27 Nordeste 41 Nordeste 0 994.2 -1.2 34
2019-05-30 20:00:00 27.1 27 Nordeste 37 Nordeste 0 994.2 -1.6 31
2019-05-30 19:00:00 27 21 Nordeste 28 Nordeste 0 994.8 -1.2 34
2019-05-30 18:00:00 25.3 12 Norte 17 Norte 0 995.4 -0.7 45
2019-05-30 17:00:00 26.1 9 Noroeste 15 Noroeste 0 995.8 -0.4 34
2019-05-30 16:00:00 25.2 8 Oeste 14 Oeste 0 996 -0.1 35
2019-05-30 15:00:00 26.2 6 Sudoeste 14 Sudoeste 0 996.1 0.1 36
2019-05-30 14:00:00 26.1 9 Sudoeste 15 Sudoeste 0 996.2 0.3 39
2019-05-30 13:00:00 26.7 9 Sudoeste 14 Sur 0 996.1 0.4 35
2019-05-30 12:00:00 26.5 3 Sur 12 Este 0 996 0.6 46
2019-05-30 11:00:00 26.7 9 Este 18 Este 0 995.9 0.6 38
2019-05-30 10:00:00 25.7 11 Este 24 Este 0 995.7 0.8 39
2019-05-30 09:00:00 24.6 21 Este 28 Este 0 995.4 0.8 36
2019-05-30 08:00:00 23.2 13 Este 30 Este 0 995.3 0.5 37
2019-05-30 07:00:00 22.3 21 Este 37 Este 0 994.9 -0.1 36
2019-05-30 06:00:00 21 28 Este 39 Este 0 994.6 -0.8 42
2019-05-30 05:00:00 19.2 30 Este 45 Nordeste 0 994.8 -1 52
2019-05-30 04:00:00 19.3 27 Este 32 Este 0 995 -1.3 54
2019-05-30 03:00:00 19.8 22 Este 32 Este 0 995.4 -0.9 53
2019-05-30 02:00:00 20.1 22 Nordeste 41 Este 0 995.8 -0.5 55
2019-05-30 01:00:00 19.5 23 Nordeste 53 Nordeste 0 996.3 0.8 57
2019-05-30 00:00:00 19.2 35 Nordeste 55 Nordeste 0 996.3 0.7 55
2019-05-29 23:00:00 18.1 35 Nordeste 57 Nordeste 0 996.3 0.8 62
2019-05-29 22:00:00 17.7 42 Nordeste 59 Nordeste 0 995.5 0 61
2019-05-29 21:00:00 18.4 37 Nordeste 53 Nordeste 0 995.6 -0.1 65
2019-05-29 20:00:00 18.6 33 Nordeste 45 Nordeste 0 995.5 -0.4 68
2019-05-29 19:00:00 18.5 29 Nordeste 40 Nordeste 0 995.5 -0.5 70
2019-05-29 18:00:00 16.8 28 Nordeste 38 Nordeste 0 995.7 -0.9 77
2019-05-29 17:00:00 18 29 Nordeste 48 Nordeste 0 995.9 -0.7 74
2019-05-29 16:00:00 16 36 Nordeste 48 Nordeste 0 996 -0.8 80
2019-05-29 15:00:00 16.2 28 Norte 41 Nordeste 0 996.6 -0.2 78
2019-05-29 14:00:00 16.1 31 Nordeste 42 Nordeste 0 996.6 -0.2 78
2019-05-29 13:00:00 16.4 28 Nordeste 39 Nordeste 0 996.8 -0.1 74
2019-05-29 12:00:00 18.2 14 Nordeste 31 Norte 0 996.8 -0.2 64
2019-05-29 11:00:00 17.1 16 Nordeste 31 Nordeste 0 996.8 -0.1 65
2019-05-29 10:00:00 14.2 18 Norte 27 Nordeste 0 996.9 0.2 74
2019-05-29 09:00:00 13.3 17 Nordeste 28 Nordeste 0 997 -0.1 74
2019-05-29 08:00:00 13 18 Este 30 Nordeste 0 996.9 -0.3 73
2019-05-29 07:00:00 11.5 19 Este 28 Nordeste 0 996.7 -0.5 79
2019-05-29 06:00:00 11.1 21 Nordeste 30 Nordeste 0 997.1 -0.1 81
2019-05-29 05:00:00 11 21 Nordeste 35 Nordeste 0 997.2 0 83
2019-05-29 04:00:00 11.4 24 Nordeste 42 Nordeste 0 997.2 0 80
2019-05-29 03:00:00 11.5 25 Nordeste 46 Nordeste 0 997.2 0.1 82
2019-05-29 02:00:00 11.6 28 Nordeste 44 Nordeste 0 997.2 0.4 86
2019-05-29 01:00:00 11.7 31 Nordeste 49 Nordeste 0 997.2 0.6 87
2019-05-29 00:00:00 11.8 32 Nordeste 45 Nordeste 0 997.1 0.8 86
2019-05-28 23:00:00 12.1 31 Nordeste 45 Nordeste 0 996.8 0.9 85
2019-05-28 22:00:00 12.6 32 Nordeste 45 Nordeste 0 996.6 0.8 82
2019-05-28 21:00:00 14 27 Norte 44 Nordeste 0 996.3 1 77
2019-05-28 20:00:00 15 26 Nordeste 49 Norte 0 995.9 0.5 71
2019-05-28 19:00:00 15.5 26 Nordeste 57 Nordeste 0 995.8 0.5 69
2019-05-28 18:00:00 14.6 38 Norte 59 Norte 0 995.3 0 77
2019-05-28 17:00:00 14.8 33 Norte 57 Norte 0 995.4 0 77
2019-05-28 16:00:00 14.6 37 Norte 64 Norte 0 995.3 0 76
2019-05-28 15:00:00 14.6 34 Norte 57 Norte 0 995.3 0.2 76
2019-05-28 14:00:00 14.4 35 Norte 55 Norte 0 995.4 0.3 76
2019-05-28 13:00:00 15.1 29 Nordeste 48 Norte 0 995.3 0.4 69
2019-05-28 12:00:00 14.5 28 Nordeste 48 Nordeste 0 995.1 0.7 73
2019-05-28 11:00:00 14.3 30 Nordeste 48 Nordeste 0 995.1 1.1 74
2019-05-28 10:00:00 13.5 24 Nordeste 46 Nordeste 0 994.9 1.2 80
2019-05-28 09:00:00 12.8 31 Nordeste 51 Nordeste 0 994.4 0.9 85
2019-05-28 08:00:00 12.1 27 Nordeste 46 Nordeste 0 994 0.5 89
2019-05-28 07:00:00 11.4 32 Nordeste 47 Nordeste 0 993.7 0.1 89
2019-05-28 06:00:00 11.7 27 Nordeste 39 Norte 0 993.5 -0.1 89
2019-05-28 05:00:00 11.3 28 Nordeste 41 Nordeste 0 993.5 -0.3 89
2019-05-28 04:00:00 11.4 27 Nordeste 42 Nordeste 0 993.6 -0.2 89
2019-05-28 03:00:00 11.4 29 Nordeste 44 Nordeste 0 993.6 -0.3 88
2019-05-28 02:00:00 11.7 27 Nordeste 43 Nordeste 0 993.8 0.3 88
2019-05-28 01:00:00 11.6 31 Nordeste 45 Nordeste 0 993.8 0.8 87
2019-05-28 00:00:00 11.6 30 Nordeste 48 Nordeste 0 993.9 1.3 86
2019-05-27 23:00:00 11.6 33 Nordeste 50 Norte 0 993.5 1.2 85
2019-05-27 22:00:00 12.1 36 Nordeste 58 Nordeste 0 993 0.7 82
2019-05-27 21:00:00 12.9 32 Nordeste 59 Nordeste 0 992.6 0.4 77
2019-05-27 20:00:00 13.4 38 Nordeste 57 Norte 0 992.3 -0.1 74
2019-05-27 19:00:00 14 32 Nordeste 57 Nordeste 0 992.3 -0.4 73
2019-05-27 18:00:00 14.2 36 Norte 54 Norte 0 992.2 -0.9 75
2019-05-27 17:00:00 14.2 34 Norte 55 Norte 0 992.4 -0.8 80
2019-05-27 16:00:00 14.1 30 Norte 47 Norte 0 992.7 -0.7 82
2019-05-27 15:00:00 12.9 30 Nordeste 45 Nordeste 0 993.1 -0.3 90
2019-05-27 14:00:00 12.1 31 Norte 48 Norte 0 993.2 0.1 95
2019-05-27 13:00:00 12.5 29 Norte 52 Norte 0 993.4 0.4 94
2019-05-27 12:00:00 13.1 22 Nordeste 39 Norte 0 993.4 0.9 95
2019-05-27 11:00:00 12.9 19 Nordeste 45 Nordeste 0 993.1 0.9 96
2019-05-27 10:00:00 13 28 Nordeste 39 Nordeste 0 993 0.9 96
2019-05-27 09:00:00 13.2 23 Norte 39 Norte 0 992.5 0.1 96
2019-05-27 08:00:00 13.2 26 Norte 36 Nordeste 0 992.2 -0.1 95
2019-05-27 07:00:00 13.4 18 Norte 24 Norte 0 992.1 -0.9 95
2019-05-27 06:00:00 13.4 17 Norte 24 Norte 0 992.4 -1 95
2019-05-27 05:00:00 13.6 19 Norte 24 Norte 0 992.3 -1.5 95
2019-05-27 04:00:00 13.2 16 Norte 31 Nordeste 0 993 -1.1 94
2019-05-27 03:00:00 13.3 23 Nordeste 30 Nordeste 0 993.4 -1.1 94
2019-05-27 02:00:00 12.9 24 Nordeste 33 Nordeste 0 993.8 -0.6 93
2019-05-27 01:00:00 12.7 24 Nordeste 38 Norte 0 994.1 0.3 93
2019-05-27 00:00:00 13 23 Nordeste 45 Nordeste 0 994.5 0.7 91
2019-05-26 23:00:00 13 25 Nordeste 50 Nordeste 0 994.4 0.5 90
2019-05-26 22:00:00 12.7 35 Nordeste 62 Nordeste 0 993.8 -0.3 89
2019-05-26 21:00:00 12.9 43 Norte 70 Norte 0 993.8 -0.5 88
2019-05-26 20:00:00 13.4 38 Norte 63 Norte 0 993.9 -0.6 84
2019-05-26 19:00:00 14.3 36 Norte 61 Norte 0 994.1 -0.7 81
2019-05-26 18:00:00 14.1 37 Norte 58 Norte 0 994.3 -0.8 81
2019-05-26 17:00:00 14.1 39 Norte 65 Norte 0 994.5 -1.1 80
2019-05-26 16:00:00 13.9 39 Norte 62 Norte 0 994.8 -1.1 81
2019-05-26 15:00:00 13.9 38 Norte 58 Nordeste 0 995.1 -0.9 80
2019-05-26 14:00:00 13.7 39 Norte 62 Norte 0 995.6 -0.6 80
2019-05-26 13:00:00 13.7 36 Norte 54 Norte 0 995.9 -0.3 80
2019-05-26 12:00:00 13.7 32 Norte 51 Norte 0 996 -0.3 81
2019-05-26 11:00:00 14.2 25 Norte 42 Norte 0 996.2 0 80
2019-05-26 10:00:00 13.6 24 Norte 41 Nordeste 0 996.2 0.3 80
2019-05-26 09:00:00 12.7 25 Nordeste 44 Nordeste 0 996.3 0.1 83
2019-05-26 08:00:00 12.3 22 Nordeste 42 Nordeste 0 996.2 -0.4 85
2019-05-26 07:00:00 11.9 22 Nordeste 38 Nordeste 0 995.9 -0.5 87
2019-05-26 06:00:00 12 25 Nordeste 42 Nordeste 0 996.2 -0.4 88
2019-05-26 05:00:00 12.2 22 Nordeste 42 Nordeste 0 996.6 -0.2 88
2019-05-26 04:00:00 12.4 31 Nordeste 45 Nordeste 0 996.4 -0.8 87
2019-05-26 03:00:00 12.4 27 Nordeste 43 Nordeste 0 996.6 -1 86
2019-05-26 02:00:00 12.3 27 Nordeste 41 Nordeste 0 996.8 -0.4 86
2019-05-26 01:00:00 12.6 23 Nordeste 51 Nordeste 0 997.2 0.4 86
2019-05-26 00:00:00 12.7 28 Nordeste 50 Nordeste 0 997.6 1.2 86